This is the latest recevied weather packets stored in our database for station/object S51UL-6. If no packets are shown the sender has not sent any weather packets the latest 10 day(s).
| Time | Temp. | Humidity | Pressure | Rain* | Wind** | Luminosity | Snow |
|---|---|---|---|---|---|---|---|
| 1777970314 | 22.78° C | 45% | 1011.7 hPa | 0 mm | - | - | - |
| 1777969713 | 22.78° C | 46% | 1011.6 hPa | 0 mm | - | - | - |
| 1777969413 | 22.78° C | 46% | 1011.8 hPa | 0 mm | - | - | - |
| 1777969113 | 22.78° C | 45% | 1012 hPa | 0 mm | - | - | - |
| 1777968513 | 22.22° C | 48% | 1011.9 hPa | 0 mm | - | - | - |
| 1777968213 | 21.67° C | 48% | 1011.9 hPa | 0 mm | - | - | - |
| 1777967913 | 21.67° C | 48% | 1011.8 hPa | 0 mm | - | - | - |
| 1777967614 | 21.67° C | 49% | 1011.9 hPa | 0 mm | - | - | - |
| 1777967312 | 21.67° C | 50% | 1012.1 hPa | 0 mm | - | - | - |
| 1777967014 | 20.56° C | 52% | 1012.1 hPa | 0 mm | - | - | - |
| 1777966714 | 20.56° C | 52% | 1012.3 hPa | 0 mm | - | - | - |
| 1777966415 | 20° C | 52% | 1012.3 hPa | 0 mm | - | - | - |
| 1777966114 | 19.44° C | 53% | 1012.3 hPa | 0 mm | - | - | - |
| 1777965814 | 19.44° C | 54% | 1012.4 hPa | 0 mm | - | - | - |
| 1777965217 | 18.89° C | 54% | 1012.3 hPa | 0 mm | - | - | - |
| 1777964914 | 18.33° C | 55% | 1012.2 hPa | 0 mm | - | - | - |
| 1777964615 | 18.33° C | 56% | 1012.2 hPa | 0 mm | - | - | - |
| 1777963714 | 17.78° C | 57% | 1012.5 hPa | 0 mm | - | - | - |
| 1777963414 | 17.22° C | 58% | 1012.4 hPa | 0 mm | - | - | - |
| 1777963114 | 17.22° C | 57% | 1012.5 hPa | 0 mm | - | - | - |
| 1777962814 | 16.67° C | 58% | 1012.4 hPa | 0 mm | - | - | - |
| 1777962214 | 16.67° C | 60% | 1012.5 hPa | 0 mm | - | - | - |
| 1777961916 | 16.67° C | 60% | 1012.4 hPa | 0 mm | - | - | - |
| 1777961615 | 16.11° C | 62% | 1012.4 hPa | 0 mm | - | - | - |
| 1777960715 | 13.33° C | 73% | 1012.5 hPa | 0 mm | - | - | - |
* Rain latest hour (hover to see other rain measurements)
** Current wind speed in m/s (hover to see current wind gust speed)